Tripoli, Wisconsin
Current Conditions -  °F | °C
As of 11:15 PM on Saturday 20 Dec 2014 (Local Time) from KTKV Reporting Station
Haze Haze  
Wind Chill: 28°   Ceiling: 900
Heat Index: 28°   Visibility: 5mi
Dew Point: 25°   Wind: 0mph
Humidity: 91%   Direction: NA
Pressure: 30.13"   Gusts: NA
Location:  45.56°N, 89.99°W
Report Text: KTKV 210515Z AUTO 00000KT 5SM BR OVC009 M02/M04 A3013 RMK AO2 T10251038
Loading
Personal Weather Stations






























Interactive Weather Map New forecast layout! Learn more

10-Day Weather Forecast

Advertisements
Track Severe Weather on mobile